createdAt,value
2017-12-01T00:00:01.956Z,60.7
2017-12-01T00:00:14.896Z,61.3
2017-12-01T00:00:27.829Z,60.4
2017-12-01T00:00:39.192Z,60.8
2017-12-01T00:00:56.677Z,60.9
2017-12-01T00:01:12.288Z,60.9
2017-12-01T00:01:28.420Z,60.9
2017-12-01T00:01:40.575Z,60.9
2017-12-01T00:01:53.533Z,60.5
2017-12-01T00:02:10.465Z,60.7
2017-12-01T00:02:22.676Z,60.6
2017-12-01T00:02:33.989Z,60.7
2017-12-01T00:02:47.074Z,60.8
2017-12-01T00:02:59.993Z,60.8
2017-12-01T00:03:12.873Z,61
2017-12-01T00:03:25.846Z,60.8
2017-12-01T00:03:42.775Z,60.6
2017-12-01T00:03:54.926Z,60.6
2017-12-01T00:04:07.883Z,60.6
2017-12-01T00:04:24.869Z,60.5
2017-12-01T00:04:36.938Z,60.8
2017-12-01T00:04:48.603Z,60.7
2017-12-01T00:05:01.876Z,60.8
2017-12-01T00:05:14.264Z,60.9
2017-12-01T00:05:31.180Z,60.7
2017-12-01T00:05:43.381Z,60
2017-12-01T00:06:00.334Z,60.2
2017-12-01T00:06:16.748Z,60.3
2017-12-01T00:06:28.609Z,60.8
2017-12-01T00:06:39.994Z,60.8
2017-12-01T00:06:52.977Z,60.3
2017-12-01T00:07:05.880Z,61
2017-12-01T00:07:18.848Z,60
2017-12-01T00:07:31.852Z,60
2017-12-01T00:07:44.779Z,60.1
2017-12-01T00:07:57.730Z,60.3
2017-12-01T00:08:10.637Z,60.3
2017-12-01T00:08:27.610Z,60.5
2017-12-01T00:08:43.787Z,60.5
2017-12-01T00:08:59.865Z,60.5
2017-12-01T00:09:12.041Z,60.5
2017-12-01T00:09:25.093Z,61
2017-12-01T00:09:42.218Z,60.4
2017-12-01T00:09:54.111Z,60.2
2017-12-01T00:10:07.092Z,60.2
2017-12-01T00:10:24.012Z,60.4
2017-12-01T00:10:40.124Z,60.5
2017-12-01T00:10:56.386Z,60.4
2017-12-01T00:11:08.480Z,60.4
2017-12-01T00:11:21.588Z,61.2
2017-12-01T00:11:34.338Z,60.4
2017-12-01T00:11:45.742Z,60.4
2017-12-01T00:11:58.714Z,60.5
2017-12-01T00:12:15.692Z,60.7
2017-12-01T00:12:27.761Z,59.8
2017-12-01T00:12:39.113Z,60.1
2017-12-01T00:12:50.492Z,60
2017-12-01T00:13:05.805Z,60.3
2017-12-01T00:13:18.016Z,60.5
2017-12-01T00:13:29.403Z,60
2017-12-01T00:13:46.380Z,60.1
2017-12-01T00:13:58.468Z,60.3
2017-12-01T00:14:11.405Z,60.1
2017-12-01T00:14:24.356Z,60
2017-12-01T00:14:35.736Z,60
2017-12-01T00:14:48.754Z,60
2017-12-01T00:15:01.612Z,60
2017-12-01T00:15:18.617Z,59.9
2017-12-01T00:15:34.813Z,60.1
2017-12-01T00:15:46.915Z,59.8
2017-12-01T00:16:02.255Z,60.1
2017-12-01T00:16:14.505Z,59.8
2017-12-01T00:16:27.359Z,60.2
2017-12-01T00:16:44.317Z,60.1
2017-12-01T00:16:56.463Z,60.2
2017-12-01T00:17:09.454Z,60
2017-12-01T00:17:22.387Z,60.3
2017-12-01T00:17:45.304Z,60.3
2017-12-01T00:18:01.933Z,60.3
2017-12-01T00:18:14.016Z,60.2
2017-12-01T00:18:36.915Z,60.3
2017-12-01T00:18:49.552Z,60.3
2017-12-01T00:19:02.538Z,60.2
2017-12-01T00:19:15.557Z,60.3
2017-12-01T00:19:28.394Z,60.4
2017-12-01T00:19:45.333Z,60.4
2017-12-01T00:19:57.519Z,60.4
2017-12-01T00:20:10.519Z,60.2
2017-12-01T00:20:27.358Z,60.4
2017-12-01T00:20:43.569Z,60.2
2017-12-01T00:20:55.674Z,60.1
2017-12-01T00:21:08.631Z,59.7
2017-12-01T00:21:24.024Z,60.3
2017-12-01T00:21:36.216Z,60.7
2017-12-01T00:21:49.070Z,60
2017-12-01T00:22:04.490Z,60.3
2017-12-01T00:22:16.654Z,60
2017-12-01T00:22:29.569Z,60.1
2017-12-01T00:22:46.570Z,60
2017-12-01T00:22:58.679Z,60.2
2017-12-01T00:23:10.046Z,60
2017-12-01T00:23:22.983Z,60.2
2017-12-01T00:23:35.921Z,60
2017-12-01T00:23:48.915Z,59.9
2017-12-01T00:24:01.868Z,60.3
2017-12-01T00:24:14.819Z,60
2017-12-01T00:24:31.797Z,60.3
2017-12-01T00:24:43.948Z,60
2017-12-01T00:24:56.911Z,60.1
2017-12-01T00:25:09.916Z,60.6
2017-12-01T00:25:22.794Z,60.6
2017-12-01T00:25:35.762Z,60.3
2017-12-01T00:25:48.688Z,60.3
2017-12-01T00:26:01.641Z,60.3
2017-12-01T00:26:14.558Z,60.3
2017-12-01T00:26:27.520Z,60.6
2017-12-01T00:26:40.478Z,60.7
2017-12-01T00:26:53.442Z,60.3
2017-12-01T00:27:06.374Z,60.3
2017-12-01T00:27:19.365Z,60.2
2017-12-01T00:27:32.318Z,60.9
2017-12-01T00:27:45.580Z,61.1
2017-12-01T00:27:58.200Z,60.3
2017-12-01T00:28:11.139Z,60.4
2017-12-01T00:28:28.105Z,60.4
2017-12-01T00:28:40.423Z,60.4
2017-12-01T00:28:57.208Z,60.4
2017-12-01T00:29:09.381Z,60.9
2017-12-01T00:29:22.360Z,60.4
2017-12-01T00:29:39.239Z,60.2
2017-12-01T00:29:51.463Z,60
2017-12-01T00:30:04.357Z,60.9
2017-12-01T00:30:15.729Z,60.2
2017-12-01T00:30:28.649Z,60.2
2017-12-01T00:30:41.661Z,61
2017-12-01T00:30:59.099Z,60.2
2017-12-01T00:31:10.765Z,61.1
2017-12-01T00:31:23.732Z,60.5
2017-12-01T00:31:36.609Z,60.1
2017-12-01T00:31:48.012Z,60.1
2017-12-01T00:32:00.941Z,60.2
2017-12-01T00:32:19.839Z,60.7
2017-12-01T00:32:35.649Z,60.8
2017-12-01T00:32:59.803Z,60.4
2017-12-01T00:33:19.163Z,60.8
2017-12-01T00:33:31.356Z,60.6
2017-12-01T00:33:48.311Z,60.6
2017-12-01T00:34:04.353Z,60.7
2017-12-01T00:34:16.614Z,60.9
2017-12-01T00:34:33.489Z,60.9
2017-12-01T00:34:49.671Z,60.9
2017-12-01T00:35:35.267Z,60.9
2017-12-01T00:35:50.901Z,60.9
2017-12-01T00:36:03.094Z,60.9
2017-12-01T00:36:20.038Z,60.4
2017-12-01T00:36:36.230Z,60.6
2017-12-01T00:36:52.323Z,60.4
2017-12-01T00:37:08.502Z,60.9
2017-12-01T00:37:24.603Z,60.8
2017-12-01T00:37:40.785Z,61
2017-12-01T00:37:56.990Z,60.8
2017-12-01T00:38:13.140Z,60.9
2017-12-01T00:38:29.239Z,60.9
2017-12-01T00:38:45.410Z,60.4
2017-12-01T00:39:01.652Z,60.9
2017-12-01T00:39:17.704Z,60.9
2017-12-01T00:39:33.844Z,60.4
2017-12-01T00:39:50.530Z,60.4
2017-12-01T00:40:12.108Z,60.6
2017-12-01T00:40:28.752Z,60.8
2017-12-01T00:40:44.885Z,60.9
2017-12-01T00:41:01.106Z,60.7
2017-12-01T00:41:13.188Z,60.6
2017-12-01T00:41:30.193Z,60.9
2017-12-01T00:41:46.487Z,60.9
2017-12-01T00:42:02.414Z,60.5
2017-12-01T00:42:18.607Z,60.9
2017-12-01T00:42:34.746Z,60.9
2017-12-01T00:42:50.909Z,60.7
2017-12-01T00:43:07.113Z,60.8
2017-12-01T00:43:23.219Z,60.8
2017-12-01T00:43:39.421Z,60.5
2017-12-01T00:43:56.486Z,60.8
2017-12-01T00:44:13.285Z,60.5
2017-12-01T00:44:29.492Z,61.2
2017-12-01T00:44:45.618Z,60.8
2017-12-01T00:45:01.816Z,60.9
2017-12-01T00:45:18.385Z,61.1
2017-12-01T00:45:34.011Z,61.2
2017-12-01T00:45:50.165Z,61.1
2017-12-01T00:46:06.356Z,60.9
2017-12-01T00:46:22.496Z,60.7
2017-12-01T00:46:38.669Z,61
2017-12-01T00:46:54.901Z,61
2017-12-01T00:47:11.005Z,60.9
2017-12-01T00:47:23.126Z,60.9
2017-12-01T00:47:40.031Z,60.9
2017-12-01T00:47:56.212Z,61
2017-12-01T00:48:12.324Z,60.8
2017-12-01T00:48:28.543Z,60.8
2017-12-01T00:48:44.633Z,60.8
2017-12-01T00:49:00.804Z,60.7
2017-12-01T00:49:13.018Z,60.8
2017-12-01T00:49:29.959Z,60.7
2017-12-01T00:49:46.062Z,60.9
2017-12-01T00:49:58.220Z,61.2
2017-12-01T00:50:14.605Z,61.2
2017-12-01T00:50:31.358Z,61.3
2017-12-01T00:50:47.501Z,61.1
2017-12-01T00:51:03.631Z,61.1
2017-12-01T00:51:29.735Z,61.1
2017-12-01T00:51:45.617Z,61.7
2017-12-01T00:52:01.782Z,61
2017-12-01T00:52:17.844Z,61.1
2017-12-01T00:52:30.032Z,61
2017-12-01T00:52:47.003Z,60.9
2017-12-01T00:53:03.103Z,61.1
2017-12-01T00:53:19.319Z,61
2017-12-01T00:53:35.401Z,60.9
2017-12-01T00:53:51.578Z,61.6
2017-12-01T00:54:07.742Z,61.3
2017-12-01T00:54:25.492Z,61.5
2017-12-01T00:54:41.659Z,61.5
2017-12-01T00:54:57.801Z,61.7
2017-12-01T00:55:13.946Z,61.6
2017-12-01T00:55:30.071Z,61.6
2017-12-01T00:55:46.263Z,61.5
2017-12-01T00:56:02.489Z,61.5
2017-12-01T00:56:18.593Z,61.5
2017-12-01T00:56:34.778Z,61.3
2017-12-01T00:56:46.912Z,61.4
2017-12-01T00:57:03.877Z,61.5
2017-12-01T00:57:16.012Z,61.4
2017-12-01T00:57:33.031Z,61.1
2017-12-01T00:57:49.111Z,61.4
2017-12-01T00:58:05.264Z,61.5
2017-12-01T00:58:17.404Z,61.5
2017-12-01T00:58:32.763Z,61.5
2017-12-01T00:58:48.885Z,61.7
2017-12-01T00:59:05.077Z,61.4
2017-12-01T00:59:21.264Z,61.6
2017-12-01T00:59:37.345Z,61.5
2017-12-01T00:59:53.572Z,61.5
2017-12-01T01:00:09.789Z,61.3
2017-12-01T01:00:25.829Z,61.3
2017-12-01T01:00:41.948Z,61.4
2017-12-01T01:01:07.646Z,61.5
2017-12-01T01:01:19.904Z,61.7
2017-12-01T01:01:36.834Z,61.3
2017-12-01T01:01:49.006Z,61.5
2017-12-01T01:02:05.978Z,61.7
2017-12-01T01:02:18.073Z,61.3
2017-12-01T01:02:29.429Z,61.4
2017-12-01T01:02:40.870Z,61.4
2017-12-01T01:02:53.796Z,61.3
2017-12-01T01:03:10.749Z,61.3
2017-12-01T01:03:22.933Z,61.3
2017-12-01T01:03:34.273Z,61.3
2017-12-01T01:03:47.237Z,61.9
2017-12-01T01:04:00.101Z,61.6
2017-12-01T01:04:11.524Z,61.5
2017-12-01T01:04:44.009Z,61.5
2017-12-01T01:04:56.653Z,61.2
2017-12-01T01:05:09.609Z,61.4
2017-12-01T01:05:22.571Z,61.5
2017-12-01T01:05:35.544Z,61.3
2017-12-01T01:05:48.473Z,61.5
2017-12-01T01:06:01.375Z,61.3
2017-12-01T01:06:18.287Z,61.3
2017-12-01T01:06:32.451Z,61.6
2017-12-01T01:06:49.063Z,61.6
2017-12-01T01:07:01.170Z,61.9
2017-12-01T01:07:14.178Z,61.6
2017-12-01T01:07:42.548Z,61.8
2017-12-01T01:07:58.468Z,61.9
2017-12-01T01:08:14.628Z,61.6
2017-12-01T01:08:50.744Z,61.9
2017-12-01T01:09:03.698Z,62.1
2017-12-01T01:09:15.062Z,62.1
2017-12-01T01:09:27.988Z,62
2017-12-01T01:09:40.973Z,61.9
2017-12-01T01:09:53.959Z,62.1
2017-12-01T01:10:06.844Z,62
2017-12-01T01:10:19.791Z,62
2017-12-01T01:10:31.179Z,61.9
2017-12-01T01:10:44.096Z,61.9
2017-12-01T01:10:59.592Z,61.7
2017-12-01T01:11:11.642Z,62.1
2017-12-01T01:11:31.089Z,61.6
2017-12-01T01:11:47.884Z,61.6
2017-12-01T01:12:04.214Z,61.7
2017-12-01T01:12:20.301Z,61.9
2017-12-01T01:12:46.319Z,61.9
2017-12-01T01:13:02.191Z,61.7
2017-12-01T01:13:18.301Z,61.8
2017-12-01T01:13:34.466Z,61.9
2017-12-01T01:13:50.671Z,61.9
2017-12-01T01:14:06.752Z,61.8
2017-12-01T01:14:32.873Z,61.9
2017-12-01T01:14:48.679Z,61.5
2017-12-01T01:15:04.823Z,62.1
2017-12-01T01:15:20.951Z,61.9
2017-12-01T01:15:37.142Z,62.1
2017-12-01T01:15:53.309Z,62.1
2017-12-01T01:16:09.430Z,62.1
2017-12-01T01:16:25.633Z,62
2017-12-01T01:16:41.817Z,62
2017-12-01T01:16:57.938Z,61.9
2017-12-01T01:17:14.040Z,61.8
2017-12-01T01:17:30.227Z,61.9
2017-12-01T01:17:46.348Z,61.7
2017-12-01T01:18:02.524Z,61.8
2017-12-01T01:18:18.653Z,61.9
2017-12-01T01:18:34.794Z,61.8
2017-12-01T01:18:50.962Z,61.7
2017-12-01T01:19:07.164Z,61.7
2017-12-01T01:19:23.290Z,61.7
2017-12-01T01:19:39.400Z,61.7
2017-12-01T01:19:55.627Z,61.8
2017-12-01T01:20:11.804Z,61.8
2017-12-01T01:20:27.910Z,61.7
2017-12-01T01:20:44.221Z,61.8
2017-12-01T01:21:00.204Z,61.7
2017-12-01T01:21:16.464Z,61.7
2017-12-01T01:21:32.507Z,61.7
2017-12-01T01:21:48.678Z,61.7
2017-12-01T01:22:04.777Z,61.7
2017-12-01T01:22:21.011Z,61.7
2017-12-01T01:22:37.167Z,62
2017-12-01T01:22:53.330Z,62.1
2017-12-01T01:23:09.368Z,61.7
2017-12-01T01:23:25.611Z,62.1
2017-12-01T01:23:41.725Z,62.1
2017-12-01T01:23:57.894Z,61.8
2017-12-01T01:24:14.047Z,61.7
2017-12-01T01:24:30.161Z,61.7
2017-12-01T01:24:46.338Z,61.7
2017-12-01T01:25:02.479Z,61.8
2017-12-01T01:25:18.628Z,61.6
2017-12-01T01:25:34.773Z,61.7
2017-12-01T01:25:50.984Z,61.9
2017-12-01T01:26:08.707Z,62
2017-12-01T01:26:24.825Z,62.1
2017-12-01T01:26:41.056Z,61.9
2017-12-01T01:27:07.096Z,62.4
2017-12-01T01:27:22.969Z,62.4
2017-12-01T01:27:39.068Z,62.5
2017-12-01T01:27:55.259Z,62.3
2017-12-01T01:28:11.400Z,62.7
2017-12-01T01:28:27.524Z,62.3
2017-12-01T01:28:39.671Z,62.5
2017-12-01T01:28:57.732Z,62.4
2017-12-01T01:29:14.428Z,62.7
2017-12-01T01:29:30.509Z,62.7
2017-12-01T01:29:46.735Z,62.6
2017-12-01T01:30:02.836Z,62.5
2017-12-01T01:30:19.014Z,62.7
2017-12-01T01:30:35.194Z,62.8
2017-12-01T01:30:51.348Z,62.6
2017-12-01T01:31:07.472Z,62.7
2017-12-01T01:31:23.636Z,62.3
2017-12-01T01:31:40.770Z,62.5
2017-12-01T01:31:57.502Z,62
2017-12-01T01:32:13.721Z,61.7
2017-12-01T01:32:29.827Z,61.7
2017-12-01T01:32:46.017Z,61.7
2017-12-01T01:33:02.153Z,62
2017-12-01T01:33:18.292Z,61.9
2017-12-01T01:33:34.449Z,61.7
2017-12-01T01:33:50.628Z,61.9
2017-12-01T01:34:06.764Z,62.1
2017-12-01T01:34:23.000Z,62.1
2017-12-01T01:34:39.058Z,61.9
2017-12-01T01:34:55.211Z,61.9
2017-12-01T01:35:11.401Z,61.9
2017-12-01T01:35:27.543Z,62
2017-12-01T01:35:43.679Z,61.9
2017-12-01T01:35:59.817Z,62.1
2017-12-01T01:36:15.922Z,61.9
2017-12-01T01:36:28.142Z,61.9
2017-12-01T01:36:45.113Z,62
2017-12-01T01:36:57.273Z,61.6
2017-12-01T01:37:14.194Z,61.9
2017-12-01T01:37:30.345Z,61.9
2017-12-01T01:37:46.641Z,61.9
2017-12-01T01:38:02.617Z,61.9
2017-12-01T01:38:18.817Z,61.9
2017-12-01T01:38:34.938Z,61.9
2017-12-01T01:38:51.182Z,61.9
2017-12-01T01:39:07.307Z,61.9
2017-12-01T01:39:23.388Z,62.1
2017-12-01T01:39:39.614Z,61.9
2017-12-01T01:39:55.723Z,61.9
2017-12-01T01:40:11.928Z,61.9
2017-12-01T01:40:38.013Z,61.7
2017-12-01T01:40:53.778Z,61.8
2017-12-01T01:41:09.893Z,62.1
2017-12-01T01:41:26.115Z,61.8
2017-12-01T01:41:42.249Z,62.1
2017-12-01T01:41:58.410Z,62
2017-12-01T01:42:14.570Z,61.9
2017-12-01T01:42:30.745Z,61.8
2017-12-01T01:42:46.950Z,61.7
2017-12-01T01:43:03.124Z,61.7
2017-12-01T01:43:19.180Z,61.7
2017-12-01T01:43:35.292Z,62
2017-12-01T01:43:52.498Z,61.8
2017-12-01T01:44:09.211Z,61.7
2017-12-01T01:44:25.407Z,62
2017-12-01T01:44:41.529Z,62.7
2017-12-01T01:44:57.700Z,62.6
2017-12-01T01:45:13.855Z,62.6
2017-12-01T01:45:29.969Z,62.5
2017-12-01T01:45:46.154Z,62.3
2017-12-01T01:46:02.316Z,62.4
2017-12-01T01:46:18.471Z,62.1
2017-12-01T01:46:34.577Z,62.5
2017-12-01T01:46:50.819Z,62.7
2017-12-01T01:47:06.895Z,62.9
2017-12-01T01:47:23.085Z,62.4
2017-12-01T01:47:39.288Z,62.5
2017-12-01T01:48:22.766Z,62.5
2017-12-01T01:48:34.849Z,62.4
2017-12-01T01:48:47.861Z,62.4
2017-12-01T01:49:04.754Z,62.4
2017-12-01T01:49:16.968Z,62.1
2017-12-01T01:49:33.968Z,62.4
2017-12-01T01:49:50.069Z,62.4
2017-12-01T01:50:02.248Z,62.2
2017-12-01T01:50:19.147Z,62.3
2017-12-01T01:50:35.282Z,62.2
2017-12-01T01:50:51.457Z,62.4
2017-12-01T01:51:03.638Z,62.3
2017-12-01T01:51:23.153Z,62.4
2017-12-01T01:51:39.947Z,62.4
2017-12-01T01:51:56.092Z,62.2
2017-12-01T01:52:12.337Z,62.4
2017-12-01T01:52:28.380Z,62.4
2017-12-01T01:52:44.543Z,62.4
2017-12-01T01:53:00.721Z,62.2
2017-12-01T01:53:16.989Z,62.2
2017-12-01T01:53:32.979Z,62.2
2017-12-01T01:53:49.204Z,62.4
2017-12-01T01:54:05.310Z,62.4
2017-12-01T01:54:21.430Z,62.2
2017-12-01T01:54:37.602Z,62.4
2017-12-01T01:54:53.805Z,62.2
2017-12-01T01:55:09.881Z,62.3
2017-12-01T01:55:34.694Z,62.2
2017-12-01T01:56:36.761Z,62.4
2017-12-01T01:56:52.970Z,62.4
2017-12-01T01:57:09.102Z,62.4
2017-12-01T01:57:40.184Z,62.4
2017-12-01T01:57:51.757Z,62.6
2017-12-01T01:58:03.179Z,62.5
2017-12-01T01:58:30.003Z,62.4
2017-12-01T01:58:41.815Z,62.3
2017-12-01T01:58:53.221Z,62.4
2017-12-01T01:59:06.148Z,62.6
2017-12-01T01:59:20.059Z,62.3
2017-12-01T01:59:36.078Z,62.6
2017-12-01T01:59:48.214Z,62.6
2017-12-01T02:00:01.136Z,62.7
2017-12-01T02:00:16.527Z,62.7
2017-12-01T02:00:28.646Z,62.4
2017-12-01T02:00:40.049Z,62.4
2017-12-01T02:00:52.935Z,62.5
2017-12-01T02:01:08.289Z,62.7
2017-12-01T02:01:20.458Z,62.7
2017-12-01T02:01:31.790Z,62.4
2017-12-01T02:01:43.200Z,62.6
2017-12-01T02:02:00.079Z,62.5
2017-12-01T02:02:16.292Z,62.5
2017-12-01T02:02:28.431Z,62.6
2017-12-01T02:02:39.766Z,62.5
2017-12-01T02:02:57.321Z,62.7
2017-12-01T02:03:08.889Z,62.7
2017-12-01T02:03:21.841Z,62.3
2017-12-01T02:03:38.789Z,62.7
2017-12-01T02:03:54.915Z,62.6
2017-12-01T02:04:07.081Z,62.7
2017-12-01T02:04:29.997Z,62.6
2017-12-01T02:04:46.588Z,62.4
2017-12-01T02:04:58.744Z,62.6
2017-12-01T02:05:11.707Z,62.5
2017-12-01T02:05:28.699Z,62.3
2017-12-01T02:05:40.816Z,62.6
2017-12-01T02:05:52.155Z,62.3
2017-12-01T02:06:06.198Z,62.5
2017-12-01T02:06:18.087Z,62.3
2017-12-01T02:06:35.020Z,62.3
2017-12-01T02:06:47.129Z,62.4
2017-12-01T02:06:58.590Z,62.4
2017-12-01T02:07:15.576Z,62.4
2017-12-01T02:07:27.612Z,62.4
2017-12-01T02:07:40.572Z,62.4
2017-12-01T02:07:57.555Z,62.4
2017-12-01T02:08:13.711Z,62.4
2017-12-01T02:08:25.914Z,62.4
2017-12-01T02:08:42.799Z,62.4
2017-12-01T02:08:58.919Z,62.8
2017-12-01T02:09:11.099Z,62.5
2017-12-01T02:09:28.086Z,62.2
2017-12-01T02:09:40.206Z,62.4
2017-12-01T02:09:57.150Z,62.2
2017-12-01T02:10:13.343Z,62.3
2017-12-01T02:10:29.495Z,62.3
2017-12-01T02:10:41.602Z,62.4
2017-12-01T02:10:52.944Z,62.4
2017-12-01T02:11:04.335Z,62.5
2017-12-01T02:11:15.679Z,62.5
2017-12-01T02:11:27.026Z,62.2
2017-12-01T02:11:39.975Z,62.3
2017-12-01T02:11:55.332Z,62.2
2017-12-01T02:12:07.460Z,62.2
2017-12-01T02:12:18.894Z,62.4
2017-12-01T02:12:35.755Z,62.5
2017-12-01T02:12:47.950Z,62.5
2017-12-01T02:13:00.907Z,62.7
2017-12-01T02:13:13.849Z,62.4
2017-12-01T02:13:26.774Z,62.5
2017-12-01T02:13:38.175Z,62.7
2017-12-01T02:13:51.146Z,62.7
2017-12-01T02:14:04.193Z,62.6
2017-12-01T02:14:17.053Z,62.6
2017-12-01T02:14:29.979Z,62.6
2017-12-01T02:14:44.557Z,62.4
2017-12-01T02:14:57.462Z,62.4
2017-12-01T02:15:14.485Z,62.2
2017-12-01T02:15:30.552Z,62.4
2017-12-01T02:15:46.757Z,62.4
2017-12-01T02:15:58.839Z,62.7
2017-12-01T02:16:10.253Z,62.4
2017-12-01T02:16:21.553Z,62.5
2017-12-01T02:16:33.946Z,62.5
2017-12-01T02:16:45.918Z,62.5
2017-12-01T02:16:57.234Z,62.7
2017-12-01T02:17:10.177Z,62.5
2017-12-01T02:17:21.529Z,62.9
2017-12-01T02:17:37.369Z,62.6
2017-12-01T02:17:49.006Z,62.8
2017-12-01T02:18:04.410Z,62.4
2017-12-01T02:18:16.585Z,62.5
2017-12-01T02:18:27.873Z,62.4
2017-12-01T02:18:43.221Z,62.6
2017-12-01T02:18:55.479Z,62.5
2017-12-01T02:19:08.358Z,62.6
2017-12-01T02:19:19.673Z,62.5
2017-12-01T02:19:31.064Z,62.6
2017-12-01T02:19:47.958Z,62.9
2017-12-01T02:20:00.190Z,62.8
2017-12-01T02:20:13.132Z,62.6
2017-12-01T02:20:26.054Z,62.7
2017-12-01T02:20:37.409Z,62.5
2017-12-01T02:20:50.400Z,62.4
2017-12-01T02:21:07.347Z,62.4
2017-12-01T02:21:23.448Z,62.2
2017-12-01T02:21:35.638Z,62.4
2017-12-01T02:21:46.976Z,62.9
2017-12-01T02:21:59.312Z,63.1
2017-12-01T02:22:11.287Z,62.9
2017-12-01T02:22:24.218Z,62.9
2017-12-01T02:22:37.201Z,63.1
2017-12-01T02:22:48.544Z,63.2
2017-12-01T02:23:01.492Z,63
2017-12-01T02:23:12.870Z,63
2017-12-01T02:23:25.819Z,62.9
2017-12-01T02:23:38.717Z,62.6
2017-12-01T02:23:54.135Z,62.5
2017-12-01T02:24:06.253Z,62.9
2017-12-01T02:24:17.611Z,62.7
2017-12-01T02:24:34.631Z,62.4
2017-12-01T02:24:46.689Z,62.7
2017-12-01T02:24:58.030Z,62.6
2017-12-01T02:25:09.477Z,62.5
2017-12-01T02:25:24.756Z,62.6
2017-12-01T02:25:40.979Z,62.9
2017-12-01T02:25:53.091Z,62.5
2017-12-01T02:26:04.448Z,62.5
2017-12-01T02:26:15.768Z,62.7
2017-12-01T02:26:27.168Z,62.6
2017-12-01T02:26:38.602Z,62.8
2017-12-01T02:26:51.435Z,62.5
2017-12-01T02:27:02.805Z,62.8
2017-12-01T02:27:15.753Z,62.8
2017-12-01T02:27:31.071Z,62.6
2017-12-01T02:27:43.241Z,62.4
2017-12-01T02:27:58.558Z,62.3
2017-12-01T02:28:14.731Z,62.4
2017-12-01T02:28:26.972Z,62.1
2017-12-01T02:28:38.288Z,62.3
2017-12-01T02:28:49.643Z,62.2
2017-12-01T02:29:06.582Z,62.1
2017-12-01T02:29:18.677Z,62.4
2017-12-01T02:29:30.078Z,62.2
2017-12-01T02:29:41.421Z,62.4
2017-12-01T02:29:56.808Z,62.7
2017-12-01T02:30:08.906Z,62.5
2017-12-01T02:30:25.851Z,62.1
2017-12-01T02:30:42.049Z,62.3
2017-12-01T02:30:58.201Z,62.5
2017-12-01T02:31:10.327Z,62.4
2017-12-01T02:31:21.698Z,62.4
2017-12-01T02:31:33.015Z,62.3
2017-12-01T02:31:44.437Z,62.2
2017-12-01T02:32:01.400Z,62.4
2017-12-01T02:32:13.499Z,62.3
2017-12-01T02:32:28.875Z,62.4
2017-12-01T02:32:41.057Z,62.1
2017-12-01T02:32:53.959Z,62.5
2017-12-01T02:33:05.352Z,62.2
2017-12-01T02:33:18.331Z,62.4
2017-12-01T02:33:35.224Z,62.4
2017-12-01T02:33:47.363Z,62.4
2017-12-01T02:34:00.293Z,62.4
2017-12-01T02:34:17.270Z,62.4
2017-12-01T02:34:29.454Z,62.4
2017-12-01T02:34:42.376Z,62.4
2017-12-01T02:34:53.766Z,62.4
2017-12-01T02:35:05.111Z,62.3
2017-12-01T02:35:18.091Z,62.4
2017-12-01T02:35:29.443Z,62.3
2017-12-01T02:35:40.786Z,62.4
2017-12-01T02:35:58.246Z,62.3
2017-12-01T02:36:09.874Z,62.5
2017-12-01T02:36:21.192Z,62.2
2017-12-01T02:36:32.608Z,62.4
2017-12-01T02:36:49.582Z,62.4
2017-12-01T02:37:05.741Z,62.5
2017-12-01T02:37:17.899Z,62.7
2017-12-01T02:37:29.189Z,62.5
2017-12-01T02:37:44.548Z,62.4
2017-12-01T02:38:00.757Z,62.3
2017-12-01T02:38:12.899Z,62.3
2017-12-01T02:38:24.258Z,62.4
2017-12-01T02:38:37.166Z,62.3
2017-12-01T02:38:48.495Z,62.4
2017-12-01T02:38:59.861Z,62.3
2017-12-01T02:39:12.804Z,62.4
2017-12-01T02:39:24.160Z,62.5
2017-12-01T02:39:39.543Z,62.5
2017-12-01T02:39:51.670Z,62.4
2017-12-01T02:40:04.685Z,62.2
2017-12-01T02:40:17.591Z,62.3
2017-12-01T02:40:32.946Z,62.4
2017-12-01T02:40:49.125Z,62.3
2017-12-01T02:41:05.286Z,62.7
2017-12-01T02:41:17.414Z,62.3
2017-12-01T02:41:28.726Z,62.2
2017-12-01T02:41:44.064Z,62.3
2017-12-01T02:41:56.251Z,62.3
2017-12-01T02:42:09.228Z,62.6
2017-12-01T02:42:20.564Z,62.5
2017-12-01T02:42:33.599Z,62.8
2017-12-01T02:42:46.473Z,62.7
2017-12-01T02:42:57.801Z,62.4
2017-12-01T02:43:10.749Z,62.6
2017-12-01T02:43:22.108Z,62.6
2017-12-01T02:43:35.244Z,62.7
2017-12-01T02:43:48.046Z,62.7
2017-12-01T02:44:00.997Z,62.6
2017-12-01T02:44:13.952Z,62.7
2017-12-01T02:44:26.906Z,62.7
2017-12-01T02:44:38.282Z,62.5
2017-12-01T02:44:55.231Z,62.3
2017-12-01T02:45:07.351Z,62.2
2017-12-01T02:45:24.271Z,62.4
2017-12-01T02:45:36.486Z,61.8
2017-12-01T02:45:51.855Z,62.4
2017-12-01T02:46:08.001Z,62.4
2017-12-01T02:46:20.262Z,62.7
2017-12-01T02:46:33.176Z,62.3
2017-12-01T02:46:46.051Z,62.3
2017-12-01T02:46:57.411Z,62.7
2017-12-01T02:47:08.776Z,62.7
2017-12-01T02:47:21.651Z,62
2017-12-01T02:47:37.040Z,62.7
2017-12-01T02:47:53.218Z,62.8
2017-12-01T02:48:09.373Z,62.7
2017-12-01T02:48:21.559Z,62.6
2017-12-01T02:48:34.510Z,62.5
2017-12-01T02:48:51.441Z,62.5
2017-12-01T02:49:07.587Z,62.5
2017-12-01T02:49:23.889Z,62.7
2017-12-01T02:49:40.065Z,62.7
2017-12-01T02:49:53.105Z,62.6
2017-12-01T02:50:05.152Z,62.6
2017-12-01T02:50:18.059Z,62.4
2017-12-01T02:50:35.031Z,62.5
2017-12-01T02:50:47.198Z,62.6
2017-12-01T02:51:00.095Z,62.4
2017-12-01T02:51:17.091Z,62.4
2017-12-01T02:51:29.230Z,62.1
2017-12-01T02:51:42.195Z,62.5
2017-12-01T02:51:55.200Z,63
2017-12-01T02:52:08.043Z,62.7
2017-12-01T02:52:25.086Z,63
2017-12-01T02:52:41.170Z,62.7
2017-12-01T02:52:53.210Z,62.8
2017-12-01T02:53:08.568Z,62.7
2017-12-01T02:53:24.804Z,63
2017-12-01T02:53:36.932Z,63.2
2017-12-01T02:53:48.265Z,63.2
2017-12-01T02:54:05.215Z,62.8
2017-12-01T02:54:17.347Z,63
2017-12-01T02:54:28.727Z,63.2
2017-12-01T02:54:41.720Z,63.4
2017-12-01T02:54:58.616Z,63.2
2017-12-01T02:55:11.824Z,63
2017-12-01T02:55:23.756Z,62.6
2017-12-01T02:55:37.663Z,62.6
2017-12-01T02:55:49.670Z,62.7
2017-12-01T02:56:02.592Z,62.6
2017-12-01T02:56:15.572Z,62.6
2017-12-01T02:56:28.478Z,63
2017-12-01T02:56:39.803Z,62.8
2017-12-01T02:56:56.811Z,63
2017-12-01T02:57:08.955Z,62.5
2017-12-01T02:57:21.932Z,62.5
2017-12-01T02:57:34.855Z,62.6
2017-12-01T02:57:51.858Z,62.9
2017-12-01T02:58:48.490Z,62.8
2017-12-01T02:59:04.290Z,63
2017-12-01T02:59:21.402Z,62.6
2017-12-01T02:59:38.248Z,63
2017-12-01T02:59:50.367Z,62.9
2017-12-01T03:00:30.646Z,62.7
2017-12-01T03:00:47.630Z,62.9
2017-12-01T03:01:03.774Z,62.9
2017-12-01T03:01:19.900Z,62.9
2017-12-01T03:01:32.059Z,63
2017-12-01T03:01:45.040Z,62.9
2017-12-01T03:02:09.018Z,63
2017-12-01T03:02:21.511Z,62.6
2017-12-01T03:02:37.478Z,62.8
2017-12-01T03:02:53.588Z,62.6
2017-12-01T03:03:05.800Z,62.5
2017-12-01T03:03:18.823Z,62.6
2017-12-01T03:03:31.719Z,62.6
2017-12-01T03:03:48.642Z,62.6
2017-12-01T03:04:00.857Z,62.7
2017-12-01T03:04:17.780Z,63
2017-12-01T03:04:29.973Z,62.7
2017-12-01T03:04:42.893Z,62.9
2017-12-01T03:04:55.822Z,62.8
2017-12-01T03:05:08.784Z,62.9
2017-12-01T03:05:20.167Z,62.7
2017-12-01T03:05:33.075Z,63
2017-12-01T03:05:45.976Z,62.9
2017-12-01T03:05:57.354Z,62.7
2017-12-01T03:06:10.265Z,62.9
2017-12-01T03:06:21.706Z,62.7
2017-12-01T03:06:38.648Z,63
2017-12-01T03:07:00.724Z,63.1
2017-12-01T03:07:13.361Z,63.2
2017-12-01T03:07:30.324Z,62.8
2017-12-01T03:07:46.486Z,62.8
2017-12-01T03:08:02.602Z,62.7
2017-12-01T03:08:14.710Z,62.8
2017-12-01T03:08:30.085Z,62.8
2017-12-01T03:08:42.255Z,62.8
2017-12-01T03:08:53.586Z,63.1
2017-12-01T03:09:06.595Z,62.7
2017-12-01T03:09:19.575Z,63
2017-12-01T03:09:32.464Z,63
2017-12-01T03:09:43.803Z,63
2017-12-01T03:09:59.147Z,63
2017-12-01T03:10:11.319Z,63
2017-12-01T03:10:24.311Z,63.2
2017-12-01T03:10:41.211Z,62.9
2017-12-01T03:10:53.455Z,63.1
2017-12-01T03:11:10.378Z,62.9
2017-12-01T03:11:26.486Z,62.5
2017-12-01T03:11:38.707Z,62.8
2017-12-01T03:11:51.591Z,62.4
2017-12-01T03:12:04.586Z,62.4
2017-12-01T03:12:17.554Z,62.4
2017-12-01T03:12:30.467Z,62.4
2017-12-01T03:12:41.809Z,62.3
2017-12-01T03:12:54.725Z,62.3
2017-12-01T03:13:07.702Z,62.3
2017-12-01T03:13:19.072Z,62.4
2017-12-01T03:13:32.094Z,62.8
2017-12-01T03:13:45.020Z,62.2
2017-12-01T03:13:56.363Z,62.3
2017-12-01T03:14:13.269Z,62.2
2017-12-01T03:14:29.418Z,62.4
2017-12-01T03:14:41.601Z,62.5
2017-12-01T03:14:54.658Z,62.6
2017-12-01T03:15:07.538Z,63
2017-12-01T03:15:20.433Z,63
2017-12-01T03:15:35.795Z,62.9
2017-12-01T03:15:47.981Z,62.9
2017-12-01T03:16:00.880Z,62.7
2017-12-01T03:16:13.863Z,63.1
2017-12-01T03:16:30.863Z,62.7
2017-12-01T03:16:42.995Z,62.9
2017-12-01T03:16:59.949Z,62.6
2017-12-01T03:17:16.027Z,62.9
2017-12-01T03:17:28.222Z,62.6
2017-12-01T03:17:41.273Z,62.8
2017-12-01T03:17:58.141Z,63.1
2017-12-01T03:18:14.295Z,62.6